Time;durP1;ratioP1;P1;durP2;ratioP2;P2;SDS_P1;SDS_P2;PMS_P1;PMS_P2;Temp;Humidity;BMP_temperature;BMP_pressure;BME280_temperature;BME280_humidity;BME280_pressure;Samples;Min_cycle;Max_cycle;Signal;HPM_P1;HPM_P2
2022/01/18 00:00:35;;;;;;;25.35;13.52;;;;;;;0.85;72.04;96272.66;4666549;30;20100;-61
2022/01/18 00:03:01;;;;;;;23.92;13.43;;;;;;;0.82;72.42;96273.94;4666894;30;20106;-61
2022/01/18 00:05:27;;;;;;;26.73;13.40;;;;;;;0.84;72.30;96278.91;4666400;30;20489;-62
2022/01/18 00:07:53;;;;;;;22.75;12.27;;;;;;;0.76;71.87;96285.38;4650910;30;20430;-62
2022/01/18 00:10:19;;;;;;;24.75;13.90;;;;;;;0.84;72.21;96290.13;4665141;30;20193;-61
2022/01/18 00:13:07;;;;;;;27.92;14.95;;;;;;;0.87;71.80;96292.25;4676876;30;20054;-62
2022/01/18 00:15:54;;;;;;;26.55;14.00;;;;;;;0.75;71.65;96299.47;4681789;30;20482;-61
2022/01/18 00:18:20;;;;;;;26.15;13.43;;;;;;;0.67;72.36;96307.72;4683713;30;20046;-62
2022/01/18 00:24:29;;;;;;;28.52;14.93;;;;;;;0.40;73.48;96313.78;4683786;30;20305;-63
2022/01/18 00:26:54;;;;;;;28.08;13.50;;;;;;;0.36;73.52;96325.72;4683468;30;20068;-61
2022/01/18 00:29:23;;;;;;;27.40;13.48;;;;;;;0.27;74.17;96334.25;4682568;30;20097;-63
2022/01/18 00:36:54;;;;;;;28.45;13.90;;;;;;;0.04;74.85;96354.31;4664663;30;20054;-62
2022/01/18 00:39:20;;;;;;;32.00;13.90;;;;;;;0.01;75.04;96362.63;4666167;30;20120;-62
2022/01/18 00:41:45;;;;;;;27.45;14.38;;;;;;;-0.02;75.06;96368.31;4665969;30;20601;-61
2022/01/18 00:44:11;;;;;;;26.80;12.57;;;;;;;0.01;75.10;96374.88;4665828;30;20533;-62
2022/01/18 00:46:39;;;;;;;25.48;13.10;;;;;;;-0.10;75.56;96384.38;4665930;30;20097;-60
2022/01/18 00:49:05;;;;;;;27.05;12.95;;;;;;;-0.19;75.54;96397.03;4666023;30;20054;-60
2022/01/18 00:51:40;;;;;;;22.75;11.10;;;;;;;-0.41;76.13;96404.81;4665019;30;20050;-62
2022/01/18 00:54:10;;;;;;;23.58;12.25;;;;;;;-0.40;76.57;96408.22;4665983;30;20133;-61
2022/01/18 00:56:40;;;;;;;20.45;10.60;;;;;;;-0.44;76.57;96412.28;4665959;30;20437;-61
2022/01/18 00:59:06;;;;;;;18.08;9.40;;;;;;;-0.62;76.59;96426.34;4665789;30;20574;-60
2022/01/18 01:01:34;;;;;;;21.20;11.23;;;;;;;-0.61;76.79;96435.75;4678639;30;20046;-62
2022/01/18 01:04:02;;;;;;;21.42;10.65;;;;;;;-0.55;76.65;96429.59;4683859;30;20536;-62
2022/01/18 01:06:29;;;;;;;16.60;9.05;;;;;;;-0.63;76.65;96443.00;4683230;30;20117;-60
2022/01/18 01:08:55;;;;;;;12.85;6.22;;;;;;;-0.66;76.52;96446.88;4684702;30;20058;-61
2022/01/18 01:11:21;;;;;;;16.60;8.40;;;;;;;-0.79;76.17;96440.19;4682359;30;20065;-61
2022/01/18 01:13:49;;;;;;;16.05;8.85;;;;;;;-0.82;77.04;96461.47;4672342;30;20042;-59
2022/01/18 01:34:44;;;;;;;11.43;6.90;;;;;;;-0.95;76.48;96524.16;4664915;30;20433;-60
2022/01/18 01:45:20;;;;;;;11.75;5.90;;;;;;;-1.11;76.65;96532.72;4677991;30;20146;-62
2022/01/18 01:47:50;;;;;;;11.82;5.70;;;;;;;-1.16;76.24;96549.78;4665029;30;20050;-61
2022/01/18 01:50:19;;;;;;;11.43;6.10;;;;;;;-1.15;75.94;96548.78;4663609;30;20050;-60
2022/01/18 01:52:49;;;;;;;7.65;4.88;;;;;;;-1.26;75.55;96560.00;4673038;30;20077;-60
2022/01/18 01:55:17;;;;;;;10.38;6.03;;;;;;;-1.29;75.99;96570.09;4663512;30;20241;-61
2022/01/18 01:57:42;;;;;;;7.63;4.72;;;;;;;-1.23;75.52;96567.34;4664831;30;20138;-61
2022/01/18 02:00:15;;;;;;;10.95;5.85;;;;;;;-1.28;75.61;96588.03;4664910;30;20493;-62
2022/01/18 02:02:41;;;;;;;7.90;4.93;;;;;;;-1.27;75.78;96575.81;4664948;30;20050;-61
2022/01/18 02:05:09;;;;;;;8.38;4.82;;;;;;;-1.34;75.88;96588.94;4663642;30;20403;-60
2022/01/18 02:07:35;;;;;;;7.85;4.45;;;;;;;-1.30;75.74;96599.66;4663257;30;20046;-62
2022/01/18 02:10:00;;;;;;;8.05;5.25;;;;;;;-1.36;76.01;96585.78;4663337;30;20141;-62
2022/01/18 02:12:26;;;;;;;8.50;5.68;;;;;;;-1.32;75.61;96607.72;4663821;30;20046;-62
2022/01/18 02:14:58;;;;;;;8.88;4.70;;;;;;;-1.42;75.61;96599.69;4664252;30;20058;-61
2022/01/18 02:22:55;;;;;;;7.35;4.28;;;;;;;-1.51;76.13;96627.84;4664507;30;20113;-61
2022/01/18 02:25:21;;;;;;;10.20;4.85;;;;;;;-1.41;76.12;96625.47;4663349;30;20137;-61
2022/01/18 02:27:46;;;;;;;8.88;4.65;;;;;;;-1.42;76.05;96638.66;4664151;30;20478;-60
2022/01/18 02:30:12;;;;;;;6.55;4.15;;;;;;;-1.48;75.89;96629.97;4664294;30;20054;-61
2022/01/18 02:32:38;;;;;;;8.43;4.80;;;;;;;-1.46;76.05;96648.72;4674260;30;20498;-60
2022/01/18 02:35:05;;;;;;;6.43;3.80;;;;;;;-1.51;76.50;96682.38;4681474;30;20104;-61
2022/01/18 02:37:31;;;;;;;7.63;4.68;;;;;;;-1.49;76.36;96672.56;4679902;30;20050;-61
2022/01/18 02:39:57;;;;;;;5.80;3.30;;;;;;;-1.63;76.71;96666.00;4679744;30;20053;-60
2022/01/18 02:42:27;;;;;;;5.95;2.90;;;;;;;-1.72;77.23;96660.38;4681242;30;20132;-60
2022/01/18 02:44:53;;;;;;;;;;;;;;;-1.69;77.27;96672.13;4680283;30;20054;-61
2022/01/18 02:47:20;;;;;;;4.55;2.80;;;;;;;-1.77;77.23;96680.22;4681228;30;19935;-62
2022/01/18 02:49:47;;;;;;;3.97;2.63;;;;;;;-1.80;77.36;96686.66;4681305;30;20536;-61
2022/01/18 02:52:13;;;;;;;3.55;2.45;;;;;;;-1.79;76.88;96697.84;4673248;30;20046;-60
2022/01/18 02:54:39;;;;;;;3.58;2.67;;;;;;;-1.76;76.94;96695.59;4667471;30;20145;-61
2022/01/18 02:57:11;;;;;;;5.20;2.63;;;;;;;-1.73;76.39;96700.34;4667558;30;20133;-62
2022/01/18 02:59:48;;;;;;;6.72;3.00;;;;;;;-1.63;76.02;96717.97;4667552;30;20114;-62
2022/01/18 03:05:10;;;;;;;3.83;2.40;;;;;;;-1.63;75.93;96726.53;4667680;30;20065;-61
2022/01/18 03:07:36;;;;;;;3.33;2.25;;;;;;;-1.74;76.39;96729.13;4667392;30;20057;-61
2022/01/18 03:10:04;;;;;;;4.30;2.38;;;;;;;-1.74;76.42;96742.13;4667348;30;20501;-60
2022/01/18 03:12:29;;;;;;;2.35;1.88;;;;;;;-1.77;75.67;96748.53;4677041;30;20065;-62
2022/01/18 03:14:55;;;;;;;2.40;1.80;;;;;;;-1.85;76.05;96786.03;4682864;30;20444;-60
2022/01/18 03:17:21;;;;;;;2.05;1.65;;;;;;;-1.85;75.90;96759.28;4684522;30;20628;-60
2022/01/18 03:19:47;;;;;;;2.05;1.85;;;;;;;-1.75;75.75;96753.53;4683018;30;20050;-62
2022/01/18 03:22:13;;;;;;;2.40;1.80;;;;;;;-1.71;75.69;96759.84;4667325;30;20047;-62
2022/01/18 03:30:20;;;;;;;6.30;1.77;;;;;;;-1.95;76.30;96810.94;4666981;30;20137;-61
2022/01/18 03:32:46;;;;;;;1.98;1.60;;;;;;;-2.02;76.08;96786.88;4665771;30;20141;-61
2022/01/18 03:35:12;;;;;;;2.97;1.75;;;;;;;-1.99;76.12;96774.22;4665587;30;20067;-61
2022/01/18 03:37:39;;;;;;;2.65;1.88;;;;;;;-1.90;76.42;96798.88;4667110;30;20046;-61
2022/01/18 03:40:07;;;;;;;2.15;1.48;;;;;;;-1.87;75.63;96816.59;4666729;30;20553;-60
2022/01/18 03:42:42;;;;;;;1.70;1.60;;;;;;;-1.82;75.90;96813.34;4666776;30;20482;-60
2022/01/18 03:45:32;;;;;;;2.28;1.65;;;;;;;-2.00;75.63;96840.16;4665817;30;20309;-62
2022/01/18 03:48:03;;;;;;;1.98;1.77;;;;;;;-2.00;75.80;96832.38;4664645;30;20124;-61
2022/01/18 03:50:29;;;;;;;2.58;1.85;;;;;;;-2.08;75.75;96853.44;4665512;30;20541;-62
2022/01/18 03:52:55;;;;;;;3.50;2.10;;;;;;;-2.13;76.16;96874.06;4666533;30;20534;-60
2022/01/18 03:55:22;;;;;;;2.72;2.10;;;;;;;-2.31;76.56;96851.50;4665152;30;20168;-63
2022/01/18 03:57:48;;;;;;;3.83;2.00;;;;;;;-2.29;76.35;96849.50;4651360;30;20047;-61
2022/01/18 04:00:19;;;;;;;4.35;2.17;;;;;;;-2.23;76.63;96858.22;4665111;30;20083;-62
2022/01/18 04:02:45;;;;;;;2.80;2.05;;;;;;;-2.11;76.18;96877.22;4665816;30;20510;-62
2022/01/18 04:05:12;;;;;;;4.00;2.47;;;;;;;-2.07;75.96;96866.19;4665139;30;20426;-62
2022/01/18 04:07:38;;;;;;;2.95;2.40;;;;;;;-2.02;76.05;96875.13;4664948;30;20062;-60
2022/01/18 04:10:05;;;;;;;3.20;1.95;;;;;;;-2.03;75.68;96891.69;4666128;30;20065;-61
2022/01/18 04:12:31;;;;;;;2.55;1.98;;;;;;;-2.10;76.05;96876.22;4677161;30;20525;-62
2022/01/18 04:14:59;;;;;;;2.28;1.83;;;;;;;-2.10;75.85;96897.75;4682968;30;20058;-60
2022/01/18 04:28:37;;;;;;;2.35;1.90;;;;;;;-2.45;74.72;96954.63;4678705;30;20423;-62
2022/01/18 04:31:04;;;;;;;3.22;1.85;;;;;;;-2.51;74.93;96968.44;4681764;30;20061;-62
2022/01/18 04:33:31;;;;;;;2.15;1.65;;;;;;;-2.54;74.94;96976.66;4683469;30;20080;-60
2022/01/18 04:35:57;;;;;;;2.25;1.83;;;;;;;-2.60;74.79;96995.66;4667527;30;20060;-61
2022/01/18 04:38:22;;;;;;;4.35;1.88;;;;;;;-2.64;75.69;96981.53;4683308;30;20097;-62
2022/01/18 04:40:49;;;;;;;3.80;2.38;;;;;;;-2.57;75.08;96980.47;4682983;30;20058;-64
2022/01/18 04:43:25;;;;;;;4.22;1.88;;;;;;;-2.52;73.94;96990.22;4681763;30;20045;-62
2022/01/18 04:48:35;;;;;;;4.50;2.13;;;;;;;-2.75;73.84;97030.47;4682896;30;20054;-62
2022/01/18 04:51:07;;;;;;;4.68;2.08;;;;;;;-2.79;74.33;97031.91;4682838;30;20054;-61
2022/01/18 04:53:35;;;;;;;3.17;1.80;;;;;;;-2.96;74.44;97036.00;4682818;30;20038;-62
2022/01/18 04:56:07;;;;;;;2.33;1.73;;;;;;;-3.07;74.67;97047.03;4682854;30;20045;-61
2022/01/18 04:58:33;;;;;;;3.28;2.25;;;;;;;-3.08;75.15;97059.19;4681156;30;20053;-61
2022/01/18 05:01:01;;;;;;;3.42;2.10;;;;;;;-3.12;74.86;97058.00;4682092;30;20054;-60
2022/01/18 05:03:28;;;;;;;2.38;1.67;;;;;;;-3.12;74.75;97072.75;4682982;30;20046;-61
2022/01/18 05:05:57;;;;;;;2.78;1.83;;;;;;;-3.12;74.38;97083.13;4682492;30;20046;-66
2022/01/18 05:08:24;;;;;;;2.72;1.90;;;;;;;-3.05;74.24;97071.72;4682260;30;20069;-62
2022/01/18 05:10:54;;;;;;;2.08;1.45;;;;;;;-3.09;73.69;97088.72;4674548;30;20081;-61
2022/01/18 05:21:30;;;;;;;2.53;1.67;;;;;;;-3.17;74.40;97133.00;4663547;30;20160;-62
2022/01/18 05:23:56;;;;;;;1.35;1.25;;;;;;;-3.10;73.77;97114.81;4664166;30;20544;-61
2022/01/18 05:26:23;;;;;;;4.10;1.80;;;;;;;-3.15;73.79;97123.19;4664103;30;20085;-62
2022/01/18 05:28:49;;;;;;;2.05;1.45;;;;;;;-3.26;74.38;97129.03;4664038;30;20429;-61
2022/01/18 05:31:15;;;;;;;4.03;2.33;;;;;;;-3.20;74.42;97128.22;4664627;30;20054;-62
2022/01/18 05:33:42;;;;;;;2.78;2.03;;;;;;;-3.26;74.48;97136.81;4664970;30;20218;-61
2022/01/18 05:36:11;;;;;;;2.58;1.65;;;;;;;-3.28;74.04;97159.53;4663726;30;20137;-61
2022/01/18 05:38:38;;;;;;;2.47;1.63;;;;;;;-3.35;74.23;97169.09;4649732;30;20157;-63
2022/01/18 05:41:06;;;;;;;2.10;1.50;;;;;;;-3.45;73.52;97172.91;4663907;30;20047;-62
2022/01/18 05:43:32;;;;;;;1.90;1.50;;;;;;;-3.46;74.06;97196.44;4665014;30;20054;-62
2022/01/18 05:45:58;;;;;;;2.08;1.70;;;;;;;-3.33;74.31;97172.28;4665977;30;20058;-62
2022/01/18 05:48:24;;;;;;;2.65;1.70;;;;;;;-3.43;74.11;97173.50;4638037;30;20053;-61
2022/01/18 05:50:51;;;;;;;2.50;1.63;;;;;;;-3.45;74.24;97191.03;4644919;30;20055;-60
2022/01/18 05:53:17;;;;;;;2.70;1.65;;;;;;;-3.52;73.89;97208.38;4664116;30;20140;-61
2022/01/18 05:55:43;;;;;;;3.55;1.70;;;;;;;-3.39;73.72;97230.88;4676298;30;20645;-62
2022/01/18 05:58:09;;;;;;;2.85;1.90;;;;;;;-3.40;73.98;97202.59;4650992;30;20399;-61
2022/01/18 06:00:37;;;;;;;1.90;1.60;;;;;;;-3.57;73.69;97215.97;4679850;30;20054;-60
2022/01/18 06:03:14;;;;;;;2.08;1.60;;;;;;;-3.66;74.20;97248.22;4670347;30;20050;-60
2022/01/18 06:08:24;;;;;;;2.45;1.60;;;;;;;-3.71;73.96;97229.91;4662900;30;20066;-62
2022/01/18 06:10:50;;;;;;;1.42;1.30;;;;;;;-3.63;74.19;97250.41;4664052;30;20519;-62
2022/01/18 06:13:16;;;;;;;1.67;1.58;;;;;;;-3.83;74.72;97234.09;4664693;30;20057;-59
2022/01/18 06:15:42;;;;;;;2.75;1.73;;;;;;;-3.80;74.91;97233.69;4679517;30;20168;-61
2022/01/18 06:18:08;;;;;;;4.15;1.35;;;;;;;-3.74;74.03;97269.13;4680063;30;20046;-60
2022/01/18 06:20:34;;;;;;;6.70;2.03;;;;;;;-3.67;74.05;97251.81;4679826;30;20061;-61
2022/01/18 06:23:00;;;;;;;7.30;2.08;;;;;;;-3.77;73.63;97270.31;4679856;30;20132;-63
2022/01/18 06:25:26;;;;;;;3.42;1.73;;;;;;;-3.73;73.44;97275.94;4693517;30;20081;-60
2022/01/18 06:27:53;;;;;;;5.72;1.58;;;;;;;-3.87;74.19;97308.75;4678623;30;20054;-59
2022/01/18 06:30:19;;;;;;;3.65;1.90;;;;;;;-3.82;73.86;97279.66;4680230;30;20517;-61
2022/01/18 06:32:46;;;;;;;5.15;1.85;;;;;;;-3.86;73.76;97286.25;4680478;30;20077;-60
2022/01/18 06:35:17;;;;;;;3.25;1.75;;;;;;;-3.90;73.43;97283.25;4678829;30;20540;-59
2022/01/18 06:37:44;;;;;;;1.92;1.60;;;;;;;-3.82;72.91;97290.84;4660753;30;20045;-60
2022/01/18 06:40:11;;;;;;;2.90;1.90;;;;;;;-3.83;73.88;97293.63;4674464;30;20069;-58
2022/01/18 06:42:38;;;;;;;2.33;1.52;;;;;;;-3.82;73.16;97321.91;4664949;30;20058;-58
2022/01/18 06:45:05;;;;;;;4.18;1.92;;;;;;;-3.89;72.00;97344.38;4660025;30;20115;-60
2022/01/18 06:47:31;;;;;;;1.98;1.40;;;;;;;-3.95;72.23;97355.50;4675718;30;20049;-58
2022/01/18 06:49:57;;;;;;;2.40;1.20;;;;;;;-3.94;72.89;97365.69;4675604;30;20591;-57
2022/01/18 06:52:23;;;;;;;3.47;1.88;;;;;;;-3.91;72.57;97357.53;4677896;30;20079;-59
2022/01/18 06:54:49;;;;;;;2.53;1.50;;;;;;;-4.09;72.32;97344.31;4679027;30;20054;-63
2022/01/18 06:57:14;;;;;;;2.42;1.58;;;;;;;-3.95;71.66;97345.94;4677927;30;20062;-61
2022/01/18 06:59:40;;;;;;;1.98;1.33;;;;;;;-4.07;71.44;97378.56;4679628;30;20992;-63
2022/01/18 07:02:06;;;;;;;2.55;1.58;;;;;;;-4.03;70.90;97390.16;4679141;30;20148;-61
2022/01/18 07:04:32;;;;;;;2.78;1.75;;;;;;;-3.97;71.19;97378.19;4680108;30;20050;-59
2022/01/18 07:06:58;;;;;;;2.85;1.17;;;;;;;-4.13;71.94;97406.00;4666328;30;20053;-60
2022/01/18 07:09:24;;;;;;;2.20;1.40;;;;;;;-4.11;71.33;97385.13;4666445;30;20078;-61
2022/01/18 07:11:51;;;;;;;1.67;1.42;;;;;;;-4.10;71.50;97391.88;4675745;30;20046;-61
2022/01/18 07:14:17;;;;;;;2.90;1.80;;;;;;;-4.11;71.95;97390.31;4676941;30;20061;-61
2022/01/18 07:16:43;;;;;;;3.28;1.90;;;;;;;-4.00;71.51;97389.75;4661203;30;20141;-61
2022/01/18 07:19:09;;;;;;;1.85;1.15;;;;;;;-3.98;70.32;97421.41;4676342;30;20601;-62
2022/01/18 07:21:35;;;;;;;1.90;1.70;;;;;;;-4.11;70.23;97432.50;4673987;30;20141;-58
2022/01/18 07:24:05;;;;;;;1.98;1.60;;;;;;;-4.03;70.60;97402.25;4661701;30;20588;-62
2022/01/18 07:26:31;;;;;;;;;;;;;;;-4.04;70.55;97427.34;4675912;30;20100;-62
2022/01/18 07:28:57;;;;;;;2.50;1.77;;;;;;;-3.98;70.65;97423.19;4676031;30;20018;-62
2022/01/18 07:31:23;;;;;;;3.95;1.55;;;;;;;-4.09;69.96;97429.69;4660200;30;20149;-60
2022/01/18 07:33:49;;;;;;;1.85;1.30;;;;;;;-4.07;70.64;97438.09;4675364;30;20042;-61
2022/01/18 07:36:15;;;;;;;2.90;1.95;;;;;;;-3.98;70.76;97436.13;4660026;30;20080;-59
2022/01/18 07:38:41;;;;;;;2.05;1.50;;;;;;;-4.03;69.85;97464.38;4677624;30;20089;-61
2022/01/18 07:41:06;;;;;;;2.10;1.80;;;;;;;-4.01;70.35;97447.66;4680274;30;20129;-62
2022/01/18 07:43:32;;;;;;;2.65;1.83;;;;;;;-4.09;70.30;97465.13;4665189;30;20058;-59
2022/01/18 07:45:58;;;;;;;2.30;1.55;;;;;;;-4.09;69.72;97473.69;4689673;30;20057;-61
2022/01/18 07:48:24;;;;;;;2.17;1.40;;;;;;;-4.03;70.09;97466.97;4671028;30;20057;-60
2022/01/18 07:50:54;;;;;;;2.92;1.50;;;;;;;-3.99;69.95;97479.34;4679244;30;20120;-61
2022/01/18 07:53:19;;;;;;;1.37;1.27;;;;;;;-4.02;69.49;97497.84;4678416;30;20058;-60
2022/01/18 07:55:47;;;;;;;3.47;1.75;;;;;;;-4.06;69.89;97486.25;4678956;30;20062;-59
2022/01/18 07:58:13;;;;;;;1.92;1.75;;;;;;;-4.15;69.72;97487.41;4680776;30;20054;-61
2022/01/18 08:00:41;;;;;;;4.20;1.20;;;;;;;-4.01;68.85;97506.41;4679697;30;20272;-59
2022/01/18 08:03:10;;;;;;;2.72;1.85;;;;;;;-3.98;69.32;97501.63;4662924;30;20104;-63
2022/01/18 08:05:37;;;;;;;2.53;1.67;;;;;;;-4.02;69.66;97515.16;4679520;30;20082;-61
2022/01/18 08:08:05;;;;;;;2.40;1.70;;;;;;;-4.01;68.96;97522.72;4681101;30;20490;-61
2022/01/18 08:10:31;;;;;;;2.83;1.77;;;;;;;-4.01;68.70;97516.75;4680489;30;20124;-61
2022/01/18 08:13:01;;;;;;;2.47;1.83;;;;;;;-3.93;68.38;97517.41;4678827;30;20505;-60
2022/01/18 08:15:29;;;;;;;2.33;2.03;;;;;;;-3.89;68.25;97525.56;4690577;30;20492;-61
2022/01/18 08:17:57;;;;;;;4.50;2.30;;;;;;;-3.73;68.80;97535.63;4678985;30;20046;-60
2022/01/18 08:20:23;;;;;;;2.65;1.90;;;;;;;-3.69;68.31;97547.19;4665356;30;20133;-60
2022/01/18 08:22:49;;;;;;;2.45;1.98;;;;;;;-3.72;67.91;97576.06;4668841;30;20049;-60
2022/01/18 08:25:16;;;;;;;2.08;1.70;;;;;;;-3.74;67.36;97567.69;4678766;30;20042;-60
2022/01/18 08:27:43;;;;;;;2.25;1.55;;;;;;;-3.78;66.57;97576.03;4679131;30;20601;-59
2022/01/18 08:30:12;;;;;;;3.88;1.50;;;;;;;-3.71;66.77;97590.59;4678638;30;20711;-60
2022/01/18 08:32:38;;;;;;;1.65;1.50;;;;;;;-3.85;66.92;97603.66;4680411;30;20049;-58
2022/01/18 08:35:05;;;;;;;4.18;2.20;;;;;;;-3.72;67.24;97607.13;4678596;30;20054;-62
2022/01/18 08:37:31;;;;;;;4.43;1.73;;;;;;;-3.91;66.48;97620.75;4676698;30;20655;-61
2022/01/18 08:39:57;;;;;;;1.63;1.25;;;;;;;-4.03;66.87;97630.81;4680572;30;20057;-63
2022/01/18 08:42:22;;;;;;;2.10;1.70;;;;;;;-3.98;66.97;97612.13;4680781;30;20080;-61
2022/01/18 08:44:48;;;;;;;2.13;1.50;;;;;;;-3.84;66.21;97620.81;4678681;30;20628;-62
2022/01/18 08:47:15;;;;;;;1.65;1.55;;;;;;;-3.83;67.02;97617.22;4678227;30;20050;-60
2022/01/18 08:49:41;;;;;;;3.35;1.83;;;;;;;-3.82;65.82;97613.63;4678535;30;20058;-61
2022/01/18 08:52:07;;;;;;;4.50;1.65;;;;;;;-3.83;65.01;97638.72;4679622;30;20054;-62
2022/01/18 08:54:34;;;;;;;1.95;1.70;;;;;;;-4.02;65.08;97622.06;4673515;30;20069;-60
2022/01/18 08:57:01;;;;;;;1.60;1.50;;;;;;;-4.11;64.79;97631.75;4664275;30;20045;-60
2022/01/18 08:59:28;;;;;;;3.63;2.10;;;;;;;-4.16;65.76;97657.38;4678657;30;20145;-61
2022/01/18 09:01:53;;;;;;;1.75;1.20;;;;;;;-4.25;64.27;97655.09;4678653;30;20410;-61
2022/01/18 09:04:20;;;;;;;2.55;1.88;;;;;;;-4.35;64.89;97658.00;4678099;30;20074;-61
2022/01/18 09:06:48;;;;;;;2.47;1.58;;;;;;;-4.25;64.84;97678.38;4664446;30;20089;-61
2022/01/18 09:09:16;;;;;;;3.67;2.13;;;;;;;-4.17;65.04;97675.69;4661895;30;20081;-63
2022/01/18 09:11:42;;;;;;;2.42;1.60;;;;;;;-4.23;64.75;97690.16;4646005;30;20144;-62
2022/01/18 09:14:08;;;;;;;3.42;2.40;;;;;;;-4.26;65.39;97672.41;4658171;30;20057;-64
2022/01/18 09:16:34;;;;;;;3.10;1.95;;;;;;;-4.13;64.45;97676.91;4659519;30;20073;-62
2022/01/18 09:18:59;;;;;;;4.30;2.80;;;;;;;-4.14;65.25;97681.28;4661791;30;20466;-62
2022/01/18 09:21:27;;;;;;;6.63;5.07;;;;;;;-3.99;64.52;97688.97;4659490;30;20054;-61
2022/01/18 09:23:53;;;;;;;6.55;3.40;;;;;;;-3.83;65.54;97689.69;4677817;30;20515;-61
2022/01/18 09:26:19;;;;;;;2.80;2.40;;;;;;;-3.84;64.65;97703.63;4662924;30;20072;-60
2022/01/18 09:28:45;;;;;;;2.83;1.63;;;;;;;-3.85;64.58;97720.16;4680164;30;20490;-61
2022/01/18 09:31:11;;;;;;;3.05;2.05;;;;;;;-3.95;64.55;97715.28;4691043;30;20605;-61
2022/01/18 09:33:37;;;;;;;3.67;1.90;;;;;;;-3.97;65.02;97725.00;4680698;30;20492;-61
2022/01/18 09:36:03;;;;;;;2.08;1.48;;;;;;;-4.16;64.57;97768.63;4679101;30;20132;-61
2022/01/18 09:38:33;;;;;;;2.92;1.65;;;;;;;-4.12;63.58;97740.59;4679216;30;20374;-61
2022/01/18 09:41:02;;;;;;;2.37;1.77;;;;;;;-4.20;62.91;97743.31;4656469;30;20506;-61
2022/01/18 09:43:29;;;;;;;1.58;1.23;;;;;;;-4.40;63.77;97737.94;4678579;30;20710;-61
2022/01/18 09:45:57;;;;;;;3.83;1.90;;;;;;;-4.21;62.45;97747.69;4676956;30;20069;-63
2022/01/18 09:48:23;;;;;;;1.98;1.73;;;;;;;-4.31;61.45;97804.09;4690460;30;20141;-61
2022/01/18 09:50:48;;;;;;;2.85;2.00;;;;;;;-4.25;61.28;97761.19;4677368;30;20140;-61
2022/01/18 09:53:15;;;;;;;3.33;2.00;;;;;;;-4.30;62.17;97772.06;4688452;30;20046;-62
2022/01/18 09:55:41;;;;;;;2.22;1.55;;;;;;;-4.19;61.42;97784.53;4677089;30;20203;-62
2022/01/18 09:58:08;;;;;;;2.40;1.65;;;;;;;-4.31;62.13;97782.59;4665224;30;20068;-61
2022/01/18 10:00:38;;;;;;;8.10;2.05;;;;;;;-4.24;61.61;97796.41;4663173;30;20145;-62
2022/01/18 10:03:09;;;;;;;1.60;1.50;;;;;;;-4.21;62.70;97788.28;4676248;30;20084;-61
2022/01/18 10:05:35;;;;;;;2.22;1.92;;;;;;;-4.15;62.36;97818.59;4660773;30;20491;-62
2022/01/18 10:08:02;;;;;;;2.63;1.58;;;;;;;-4.34;62.35;97809.63;4679232;30;20128;-62
2022/01/18 10:10:43;;;;;;;5.53;2.25;;;;;;;-4.12;61.72;97836.34;4692642;30;20056;-61
2022/01/18 10:13:17;;;;;;;3.20;2.10;;;;;;;-4.20;61.11;97854.59;4678878;30;20053;-61
2022/01/18 10:16:07;;;;;;;3.45;2.03;;;;;;;-4.29;61.12;97840.13;4677704;30;20169;-61
2022/01/18 10:18:43;;;;;;;5.47;2.17;;;;;;;-4.40;61.81;97862.09;4679205;30;20548;-63
2022/01/18 10:21:10;;;;;;;3.22;1.33;;;;;;;-4.35;61.22;97878.69;4690502;30;20054;-62
2022/01/18 10:23:37;;;;;;;3.83;2.03;;;;;;;-4.41;62.01;97856.13;4679903;30;20058;-61
2022/01/18 10:26:23;;;;;;;3.53;1.75;;;;;;;-4.35;62.07;97860.56;4681065;30;20339;-62
2022/01/18 10:29:02;;;;;;;3.05;1.65;;;;;;;-4.40;62.00;97864.69;4677039;30;20085;-62
2022/01/18 10:31:39;;;;;;;5.30;1.83;;;;;;;-4.30;61.64;97861.81;4677976;30;20054;-60
2022/01/18 10:34:24;;;;;;;4.57;1.80;;;;;;;-4.19;61.56;97869.13;4668475;30;20074;-62
2022/01/18 12:39:05;;;;;;;4.15;1.95;;;;;;;-4.73;67.71;98151.19;4684175;30;20080;-59
2022/01/18 12:41:46;;;;;;;2.65;2.00;;;;;;;-4.77;67.75;98171.41;4682466;30;20054;-60
2022/01/18 12:44:21;;;;;;;4.07;2.45;;;;;;;-4.72;68.19;98170.91;4667852;30;20060;-61
2022/01/18 12:46:54;;;;;;;3.80;2.45;;;;;;;-4.62;67.73;98166.31;4682836;30;20090;-60
2022/01/18 12:49:20;;;;;;;2.95;2.03;;;;;;;-4.53;67.56;98180.00;4681388;30;20081;-61
2022/01/18 12:51:54;;;;;;;3.72;2.17;;;;;;;-4.67;67.44;98197.88;4681473;30;20053;-59
2022/01/18 12:54:20;;;;;;;2.67;1.77;;;;;;;-4.68;68.28;98198.81;4682731;30;20524;-62
2022/01/18 12:56:45;;;;;;;4.55;2.05;;;;;;;-4.72;68.57;98194.16;4681635;30;20413;-61
2022/01/18 12:59:11;;;;;;;4.18;2.80;;;;;;;-4.70;69.12;98197.41;4682538;30;20052;-63
2022/01/18 13:01:37;;;;;;;4.97;2.47;;;;;;;-4.70;68.18;98205.16;4667155;30;20510;-64
2022/01/18 13:04:06;;;;;;;4.00;2.45;;;;;;;-4.73;68.95;98205.50;4682614;30;20133;-61
2022/01/18 13:06:33;;;;;;;4.03;2.38;;;;;;;-4.72;67.88;98238.13;4682471;30;20425;-61
2022/01/18 13:09:01;;;;;;;4.43;2.35;;;;;;;-4.72;67.14;98238.13;4682362;30;20053;-63
2022/01/18 13:11:30;;;;;;;3.03;2.28;;;;;;;-4.70;67.25;98243.94;4682024;30;20058;-63
2022/01/18 13:14:02;;;;;;;5.07;2.13;;;;;;;-4.96;67.23;98247.56;4666931;30;20054;-63
2022/01/18 13:30:18;;;;;;;3.83;2.33;;;;;;;-5.21;67.12;98270.06;4681175;30;20104;-61
2022/01/18 13:32:45;;;;;;;2.47;1.75;;;;;;;-5.38;67.14;98269.31;4680977;30;20078;-61
2022/01/18 13:35:11;;;;;;;2.10;1.70;;;;;;;-5.33;66.69;98274.75;4680718;30;20089;-62
2022/01/18 13:37:38;;;;;;;3.85;2.20;;;;;;;-5.37;67.67;98273.50;4680572;30;20106;-61
2022/01/18 13:40:12;;;;;;;3.20;1.88;;;;;;;-5.52;66.28;98288.84;4667159;30;20496;-60
2022/01/18 13:42:56;;;;;;;4.30;1.75;;;;;;;-5.66;66.96;98288.66;4680898;30;20072;-61
2022/01/18 13:45:24;;;;;;;7.25;2.75;;;;;;;-5.68;66.43;98293.16;4680936;30;20073;-63
2022/01/18 13:47:55;;;;;;;5.18;2.20;;;;;;;-5.74;65.80;98299.78;4682024;30;20191;-63
2022/01/18 13:50:41;;;;;;;1.95;1.63;;;;;;;-5.88;65.64;98296.06;4681814;30;20050;-62
2022/01/18 13:53:19;;;;;;;3.28;1.95;;;;;;;-5.70;65.06;98326.91;4682243;30;20061;-61
2022/01/18 13:55:48;;;;;;;4.40;2.90;;;;;;;-5.79;65.69;98320.94;4680818;30;20064;-61
2022/01/18 13:58:19;;;;;;;4.47;2.38;;;;;;;-5.75;65.21;98350.59;4666526;30;20057;-62
2022/01/18 14:00:45;;;;;;;2.38;2.17;;;;;;;-5.74;65.38;98357.38;4681081;30;20046;-62
2022/01/18 14:03:38;;;;;;;2.03;1.60;;;;;;;-5.81;65.84;98355.59;4680780;30;20104;-61
2022/01/18 14:06:06;;;;;;;3.05;2.13;;;;;;;-5.80;66.28;98359.78;4682254;30;20049;-59
2022/01/18 14:08:40;;;;;;;3.08;1.88;;;;;;;-5.76;66.77;98361.09;4682201;30;20580;-63
2022/01/18 14:11:08;;;;;;;4.10;2.85;;;;;;;-5.73;66.85;98381.44;4681549;30;20042;-63
2022/01/18 14:13:36;;;;;;;4.65;3.13;;;;;;;-5.72;66.57;98381.25;4681899;30;20054;-63
2022/01/18 14:16:32;;;;;;;3.63;2.22;;;;;;;-5.79;67.12;98385.47;4682278;30;20105;-62
2022/01/18 14:19:05;;;;;;;6.20;2.40;;;;;;;-5.76;66.93;98402.41;4675672;30;20070;-63
2022/01/18 14:21:44;;;;;;;5.03;2.60;;;;;;;-5.64;66.70;98395.97;4681499;30;20050;-58
2022/01/18 14:24:20;;;;;;;3.22;2.45;;;;;;;-5.54;66.81;98398.41;4681773;30;20050;-62
2022/01/18 14:26:52;;;;;;;2.95;1.95;;;;;;;-5.51;67.44;98416.16;4681272;30;20057;-64
2022/01/18 14:29:22;;;;;;;2.58;1.83;;;;;;;-5.71;67.98;98418.22;4680017;30;20505;-62
2022/01/18 14:32:04;;;;;;;5.13;2.50;;;;;;;-5.56;67.44;98416.66;4681370;30;20073;-60
2022/01/18 14:34:31;;;;;;;4.50;2.78;;;;;;;-5.58;66.64;98426.31;4681502;30;20138;-62
2022/01/18 14:36:57;;;;;;;4.68;2.65;;;;;;;-5.78;66.97;98438.69;4679802;30;20061;-63
2022/01/18 14:39:23;;;;;;;4.25;2.40;;;;;;;-5.66;67.25;98443.56;4679816;30;20449;-64
2022/01/18 14:41:59;;;;;;;4.35;2.38;;;;;;;-5.57;67.16;98425.34;4681263;30;20050;-62
2022/01/18 14:44:46;;;;;;;6.45;2.63;;;;;;;-5.59;66.79;98429.06;4680039;30;20056;-61
2022/01/18 14:47:26;;;;;;;3.70;2.28;;;;;;;-5.57;67.18;98450.38;4680698;30;20054;-61
2022/01/18 14:49:59;;;;;;;2.25;1.35;;;;;;;-5.57;66.46;98443.41;4679984;30;20073;-62
2022/01/18 14:52:26;;;;;;;4.82;2.40;;;;;;;-5.62;67.30;98453.41;4679806;30;20069;-60
2022/01/18 14:54:52;;;;;;;7.40;2.78;;;;;;;-5.67;67.68;98434.22;4681179;30;20102;-64
2022/01/18 14:57:18;;;;;;;5.53;1.83;;;;;;;-5.69;66.82;98459.38;4681003;30;20062;-62
2022/01/18 14:59:45;;;;;;;3.05;2.15;;;;;;;-5.64;67.00;98455.34;4680824;30;20081;-62
2022/01/18 15:02:11;;;;;;;5.70;2.33;;;;;;;-5.61;67.26;98456.81;4680863;30;20497;-63
2022/01/18 15:04:38;;;;;;;4.15;2.38;;;;;;;-5.75;66.98;98465.97;4681035;30;20528;-64
2022/01/18 15:07:04;;;;;;;3.85;2.40;;;;;;;-5.79;66.95;98462.88;4679603;30;20049;-63